createdAt,value
2019-04-21T00:00:45.772Z,47.40
2019-04-21T00:03:19.410Z,47.47
2019-04-21T00:06:07.521Z,47.53
2019-04-21T00:08:37.975Z,47.62
2019-04-21T00:11:09.329Z,47.60
2019-04-21T00:13:32.589Z,47.73
2019-04-21T00:15:54.053Z,47.67
2019-04-21T00:18:44.101Z,47.64
2019-04-21T00:21:14.820Z,47.44
2019-04-21T00:23:53.788Z,47.36
2019-04-21T00:26:25.373Z,47.29
2019-04-21T00:29:05.067Z,47.10
2019-04-21T00:31:27.101Z,46.98
2019-04-21T00:33:41.640Z,46.99
2019-04-21T00:36:16.661Z,46.81
2019-04-21T00:39:14.348Z,46.72
2019-04-21T00:41:34.004Z,46.65
2019-04-21T00:43:59.595Z,46.62
2019-04-21T00:46:32.245Z,46.65
2019-04-21T00:49:01.371Z,46.62
2019-04-21T00:52:00.551Z,46.56
2019-04-21T00:54:16.961Z,46.74
2019-04-21T00:56:49.557Z,46.76
2019-04-21T00:59:19.279Z,46.77
2019-04-21T01:01:52.775Z,46.90
2019-04-21T01:04:18.212Z,47.02
2019-04-21T01:06:57.640Z,47.10
2019-04-21T01:09:19.814Z,47.17
2019-04-21T01:11:59.626Z,47.29
2019-04-21T01:14:29.884Z,47.35
2019-04-21T01:16:58.209Z,47.40
2019-04-21T01:19:26.931Z,47.54
2019-04-21T01:21:36.384Z,47.55
2019-04-21T01:24:15.243Z,47.72
2019-04-21T01:26:49.453Z,47.89
2019-04-21T01:29:27.749Z,47.98
2019-04-21T01:32:05.114Z,48.08
2019-04-21T01:34:32.997Z,48.14
2019-04-21T01:36:58.464Z,48.27
2019-04-21T01:39:34.966Z,48.29
2019-04-21T01:42:04.816Z,48.46
2019-04-21T01:44:54.814Z,48.57
2019-04-21T01:47:02.849Z,48.74
2019-04-21T01:49:33.409Z,48.94
2019-04-21T01:52:34.992Z,49.02
2019-04-21T01:55:06.494Z,49.31
2019-04-21T01:57:50.332Z,49.54
2019-04-21T02:00:30.540Z,49.14
2019-04-21T02:03:14.939Z,49.47
2019-04-21T02:05:37.968Z,49.62
2019-04-21T02:08:00.786Z,49.68
2019-04-21T02:10:42.838Z,49.51
2019-04-21T02:13:04.869Z,49.59
2019-04-21T02:15:43.570Z,49.93
2019-04-21T02:18:10.466Z,49.88
2019-04-21T02:20:32.771Z,49.72
2019-04-21T02:23:26.383Z,49.85
2019-04-21T02:25:44.211Z,49.83
2019-04-21T02:28:24.415Z,49.91
2019-04-21T02:31:04.936Z,49.91
2019-04-21T02:33:46.537Z,50.14
2019-04-21T02:36:18.990Z,49.94
2019-04-21T02:41:01.236Z,49.91
2019-04-21T02:43:39.176Z,50.06
2019-04-21T02:46:10.576Z,49.83
2019-04-21T02:48:38.951Z,49.95
2019-04-21T02:54:10.473Z,50.17
2019-04-21T02:56:18.567Z,50.19
2019-04-21T02:58:58.345Z,50.25
2019-04-21T03:01:48.494Z,50.39
2019-04-21T03:04:30.210Z,50.38
2019-04-21T03:07:19.455Z,50.40
2019-04-21T03:09:45.926Z,50.53
2019-04-21T03:12:20.034Z,50.51
2019-04-21T03:20:10.522Z,50.66
2019-04-21T03:22:25.014Z,50.66
2019-04-21T03:27:50.175Z,50.55
2019-04-21T03:29:59.400Z,50.60
2019-04-21T03:33:09.504Z,50.62
2019-04-21T03:35:34.468Z,50.58
2019-04-21T03:37:49.356Z,50.47
2019-04-21T03:47:40.538Z,50.14
2019-04-21T03:52:47.799Z,49.84
2019-04-21T03:58:16.918Z,49.69
2019-04-21T04:01:17.949Z,49.67
2019-04-21T04:04:06.334Z,49.64
2019-04-21T04:09:21.268Z,49.36
2019-04-21T04:11:43.344Z,49.30
2019-04-21T04:14:26.878Z,49.41
2019-04-21T04:19:26.475Z,49.21
2019-04-21T04:21:57.474Z,49.17
2019-04-21T04:31:47.493Z,48.76
2019-04-21T04:34:29.170Z,48.76
2019-04-21T04:37:06.006Z,48.68
2019-04-21T04:42:39.200Z,48.42
2019-04-21T04:47:22.730Z,48.19
2019-04-21T04:49:51.681Z,48.08
2019-04-21T04:52:32.521Z,47.92
2019-04-21T05:00:14.501Z,47.78
2019-04-21T05:05:14.129Z,47.70
2019-04-21T05:15:07.881Z,47.61
2019-04-21T05:17:55.384Z,47.75
2019-04-21T05:20:13.275Z,47.71
2019-04-21T05:22:35.438Z,47.75
2019-04-21T05:25:06.844Z,47.65
2019-04-21T05:27:39.914Z,47.37
2019-04-21T05:30:26.644Z,47.45
2019-04-21T05:33:27.772Z,47.37
2019-04-21T05:36:03.109Z,47.31
2019-04-21T05:38:53.076Z,47.14
2019-04-21T05:41:15.496Z,47.13
2019-04-21T05:43:56.457Z,46.79
2019-04-21T05:46:32.246Z,46.61
2019-04-21T05:49:05.599Z,46.56
2019-04-21T05:51:30.535Z,46.51
2019-04-21T05:54:14.965Z,46.20
2019-04-21T05:56:46.461Z,45.85
2019-04-21T05:59:10.286Z,45.73
2019-04-21T06:02:08.978Z,45.60
2019-04-21T06:04:40.302Z,45.61
2019-04-21T06:07:02.209Z,45.67
2019-04-21T06:09:26.703Z,45.18
2019-04-21T06:11:59.741Z,44.84
2019-04-21T06:14:30.508Z,44.89
2019-04-21T06:17:03.953Z,45.07
2019-04-21T06:19:36.602Z,45.16
2019-04-21T06:21:57.456Z,44.85
2019-04-21T06:24:29.908Z,44.54
2019-04-21T06:27:22.457Z,44.43
2019-04-21T06:29:38.070Z,44.07
2019-04-21T06:34:49.504Z,43.83
2019-04-21T06:37:45.705Z,43.30
2019-04-21T06:40:12.721Z,42.89
2019-04-21T06:42:28.368Z,42.97
2019-04-21T06:44:57.475Z,42.82
2019-04-21T06:47:36.171Z,42.57
2019-04-21T06:50:00.413Z,42.51
2019-04-21T06:52:46.657Z,41.03
2019-04-21T06:55:12.136Z,40.26
2019-04-21T06:57:44.491Z,40.45
2019-04-21T07:00:15.191Z,39.91
2019-04-21T07:02:54.606Z,39.79
2019-04-21T07:05:15.777Z,39.53
2019-04-21T07:08:09.228Z,39.64
2019-04-21T07:10:16.611Z,39.26
2019-04-21T07:12:46.712Z,38.97
2019-04-21T07:15:16.810Z,38.38
2019-04-21T07:17:54.041Z,38.02
2019-04-21T07:20:21.744Z,37.91
2019-04-21T07:22:56.501Z,38.05
2019-04-21T07:25:29.636Z,38.13
2019-04-21T07:27:53.793Z,37.33
2019-04-21T07:30:31.181Z,37.17
2019-04-21T07:33:07.753Z,37.37
2019-04-21T07:35:31.967Z,37.42
2019-04-21T07:37:58.967Z,37.32
2019-04-21T07:40:27.487Z,37.35
2019-04-21T07:42:57.892Z,37.44
2019-04-21T07:45:26.301Z,37.21
2019-04-21T07:48:09.314Z,37.29
2019-04-21T07:51:18.883Z,37.39
2019-04-21T07:56:10.750Z,36.84
2019-04-21T08:01:30.720Z,36.84
2019-04-21T08:03:59.506Z,36.94
2019-04-21T08:06:34.956Z,36.80
2019-04-21T08:08:59.230Z,36.77
2019-04-21T08:11:28.255Z,36.98
2019-04-21T08:14:01.098Z,36.80
2019-04-21T08:16:42.763Z,36.78
2019-04-21T08:19:07.227Z,37.30
2019-04-21T08:21:43.229Z,37.15
2019-04-21T08:24:09.971Z,37.12
2019-04-21T08:26:45.032Z,36.83
2019-04-21T08:34:22.667Z,36.90
2019-04-21T08:36:52.720Z,36.75
2019-04-21T08:39:24.117Z,36.53
2019-04-21T08:41:49.626Z,36.49
2019-04-21T08:44:25.726Z,36.15
2019-04-21T08:46:58.775Z,36.08
2019-04-21T08:49:29.348Z,35.69
2019-04-21T08:54:38.689Z,35.73
2019-04-21T08:57:28.962Z,35.38
2019-04-21T09:00:05.845Z,35.06
2019-04-21T09:02:40.387Z,35.07
2019-04-21T09:05:14.164Z,34.85
2019-04-21T09:07:44.936Z,34.38
2019-04-21T09:10:09.426Z,33.85
2019-04-21T09:12:46.575Z,33.78
2019-04-21T09:15:21.606Z,33.36
2019-04-21T09:17:41.086Z,33.53
2019-04-21T09:20:38.718Z,33.37
2019-04-21T09:22:50.555Z,33.39
2019-04-21T09:25:27.020Z,32.69
2019-04-21T09:27:46.776Z,32.27
2019-04-21T09:30:06.952Z,32.10
2019-04-21T09:32:38.584Z,31.18
2019-04-21T09:35:11.262Z,31.16
2019-04-21T09:37:49.435Z,31.09
2019-04-21T09:40:16.908Z,31.11
2019-04-21T09:42:54.212Z,30.92
2019-04-21T09:45:17.668Z,30.83
2019-04-21T09:47:57.173Z,31.05
2019-04-21T09:50:19.830Z,30.76
2019-04-21T09:52:55.349Z,30.63
2019-04-21T09:55:26.590Z,30.58
2019-04-21T09:58:06.976Z,29.62
2019-04-21T10:00:29.276Z,29.02
2019-04-21T10:03:02.889Z,29.08
2019-04-21T10:05:29.748Z,29.28
2019-04-21T10:07:59.800Z,29.14
2019-04-21T10:10:31.933Z,28.98
2019-04-21T10:13:02.769Z,29.50
2019-04-21T10:15:33.255Z,29.00
2019-04-21T10:18:06.356Z,28.76
2019-04-21T10:20:36.340Z,28.89
2019-04-21T10:23:07.180Z,28.75
2019-04-21T10:25:38.628Z,28.10
2019-04-21T10:28:08.228Z,28.15
2019-04-21T10:30:38.516Z,27.57
2019-04-21T10:33:08.467Z,27.68
2019-04-21T10:35:39.287Z,27.51
2019-04-21T10:38:21.779Z,27.30
2019-04-21T10:40:41.390Z,27.76
2019-04-21T10:43:13.692Z,27.76
2019-04-21T10:45:43.230Z,27.56
2019-04-21T10:48:14.609Z,26.91
2019-04-21T10:50:45.301Z,27.30
2019-04-21T10:53:24.936Z,27.48
2019-04-21T10:56:08.204Z,27.16
2019-04-21T10:58:32.392Z,27.71
2019-04-21T11:01:10.801Z,27.10
2019-04-21T11:03:46.663Z,27.00
2019-04-21T11:06:18.930Z,27.14
2019-04-21T11:08:57.920Z,27.01
2019-04-21T11:11:25.924Z,26.63
2019-04-21T11:13:56.819Z,27.29
2019-04-21T11:16:27.096Z,26.93
2019-04-21T11:18:57.821Z,26.35
2019-04-21T11:21:27.531Z,26.03
2019-04-21T11:23:58.434Z,26.60
2019-04-21T11:26:28.129Z,25.77
2019-04-21T11:29:07.323Z,25.32
2019-04-21T11:31:36.962Z,25.44
2019-04-21T11:34:07.300Z,25.57
2019-04-21T11:36:37.580Z,25.83
2019-04-21T11:39:39.196Z,25.90
2019-04-21T11:42:05.788Z,25.77
2019-04-21T11:44:35.415Z,25.68
2019-04-21T11:47:07.642Z,25.54
2019-04-21T11:49:37.207Z,25.70
2019-04-21T11:52:07.112Z,25.52
2019-04-21T11:54:42.696Z,24.98
2019-04-21T11:57:15.143Z,25.66
2019-04-21T11:59:42.139Z,25.17
2019-04-21T12:02:15.265Z,25.01
2019-04-21T12:04:45.381Z,25.29
2019-04-21T12:07:17.513Z,24.69
2019-04-21T12:09:47.923Z,24.67
2019-04-21T12:12:18.901Z,24.64
2019-04-21T12:14:50.199Z,24.59
2019-04-21T12:17:20.397Z,24.63
2019-04-21T12:19:50.686Z,23.40
2019-04-21T12:22:25.522Z,23.54
2019-04-21T12:24:53.260Z,23.36
2019-04-21T12:27:29.841Z,23.06
2019-04-21T12:29:59.712Z,23.49
2019-04-21T12:32:44.323Z,23.41
2019-04-21T12:35:17.534Z,23.16
2019-04-21T12:37:48.916Z,23.29
2019-04-21T12:40:20.984Z,22.45
2019-04-21T12:42:50.593Z,21.53
2019-04-21T12:45:22.049Z,21.71
2019-04-21T12:47:53.901Z,21.29
2019-04-21T12:50:23.706Z,21.84
2019-04-21T12:52:53.697Z,21.92
2019-04-21T12:55:30.581Z,21.23
2019-04-21T12:57:59.837Z,21.48
2019-04-21T13:00:31.254Z,21.10
2019-04-21T13:03:01.605Z,21.81
2019-04-21T13:05:31.663Z,21.99
2019-04-21T13:08:01.686Z,22.28
2019-04-21T13:10:31.086Z,22.16
2019-04-21T13:13:02.215Z,21.68
2019-04-21T13:15:31.721Z,21.61
2019-04-21T13:18:02.837Z,21.72
2019-04-21T13:20:32.386Z,22.11
2019-04-21T13:23:01.933Z,21.97
2019-04-21T13:25:31.778Z,21.73
2019-04-21T13:28:01.184Z,21.51
2019-04-21T13:30:30.800Z,22.05
2019-04-21T13:33:00.838Z,21.68
2019-04-21T13:35:30.975Z,21.76
2019-04-21T13:38:04.647Z,21.49
2019-04-21T13:41:17.867Z,21.35
2019-04-21T13:43:35.061Z,20.84
2019-04-21T13:46:05.889Z,21.00
2019-04-21T13:48:52.762Z,21.17
2019-04-21T13:51:22.912Z,21.25
2019-04-21T13:53:53.583Z,21.36
2019-04-21T13:56:26.694Z,21.13
2019-04-21T13:58:56.468Z,20.52
2019-04-21T14:01:27.630Z,20.27
2019-04-21T14:03:57.806Z,20.58
2019-04-21T14:06:27.324Z,20.72
2019-04-21T14:08:57.066Z,20.88
2019-04-21T14:11:29.288Z,20.99
2019-04-21T14:14:00.510Z,20.77
2019-04-21T14:16:30.162Z,20.98
2019-04-21T14:19:03.482Z,20.76
2019-04-21T14:21:33.763Z,21.27
2019-04-21T14:24:04.521Z,21.13
2019-04-21T14:26:34.613Z,21.17
2019-04-21T14:29:05.815Z,21.31
2019-04-21T14:31:35.307Z,21.38
2019-04-21T14:34:05.955Z,21.75
2019-04-21T14:36:37.036Z,20.99
2019-04-21T14:39:12.546Z,21.02
2019-04-21T14:41:42.306Z,21.29
2019-04-21T14:44:13.173Z,21.12
2019-04-21T14:47:17.218Z,21.34
2019-04-21T14:50:20.362Z,21.78
2019-04-21T14:53:16.037Z,21.21
2019-04-21T14:55:49.117Z,21.43
2019-04-21T14:58:25.431Z,21.26
2019-04-21T15:01:08.158Z,21.26
2019-04-21T15:03:39.678Z,20.88
2019-04-21T15:06:09.375Z,20.99
2019-04-21T15:08:39.559Z,21.44
2019-04-21T15:11:09.070Z,21.26
2019-04-21T15:13:39.661Z,21.13
2019-04-21T15:16:09.340Z,21.06
2019-04-21T15:18:42.385Z,21.07
2019-04-21T15:21:13.255Z,21.23
2019-04-21T15:23:44.684Z,20.87
2019-04-21T15:26:14.675Z,20.92
2019-04-21T15:28:44.576Z,20.64
2019-04-21T15:31:20.493Z,20.69
2019-04-21T15:33:47.375Z,20.37
2019-04-21T15:36:16.997Z,20.26
2019-04-21T15:38:47.881Z,19.54
2019-04-21T15:41:32.395Z,20.25
2019-04-21T15:43:49.301Z,19.84
2019-04-21T15:46:19.032Z,19.89
2019-04-21T15:48:48.890Z,19.95
2019-04-21T15:51:19.797Z,20.06
2019-04-21T15:53:57.605Z,20.02
2019-04-21T15:56:44.785Z,19.86
2019-04-21T15:59:34.575Z,18.31
2019-04-21T16:02:22.410Z,18.20
2019-04-21T16:04:54.885Z,18.48
2019-04-21T16:07:24.619Z,18.03
2019-04-21T16:10:10.045Z,17.68
2019-04-21T16:12:45.952Z,17.46
2019-04-21T16:15:18.797Z,17.86
2019-04-21T16:17:51.140Z,17.62
2019-04-21T16:20:21.842Z,17.23
2019-04-21T16:22:52.858Z,17.46
2019-04-21T16:25:26.724Z,17.69
2019-04-21T16:27:57.287Z,18.78
2019-04-21T16:30:26.979Z,21.70
2019-04-21T16:32:56.762Z,22.31
2019-04-21T16:35:26.686Z,22.86
2019-04-21T16:37:57.868Z,23.39
2019-04-21T16:40:39.736Z,24.02
2019-04-21T16:43:00.357Z,24.08
2019-04-21T16:45:30.755Z,24.27
2019-04-21T16:48:01.121Z,24.51
2019-04-21T16:50:31.816Z,24.44
2019-04-21T16:53:22.074Z,24.66
2019-04-21T16:56:09.034Z,24.50
2019-04-21T16:58:42.928Z,24.61
2019-04-21T17:01:21.946Z,25.33
2019-04-21T17:03:52.753Z,25.81
2019-04-21T17:06:22.856Z,26.20
2019-04-21T17:08:54.545Z,26.51
2019-04-21T17:11:30.421Z,26.84
2019-04-21T17:13:56.600Z,27.43
2019-04-21T17:16:51.520Z,27.67
2019-04-21T17:19:09.577Z,27.92
2019-04-21T17:21:30.234Z,28.06
2019-04-21T17:24:00.013Z,28.50
2019-04-21T17:26:30.997Z,28.93
2019-04-21T17:29:02.543Z,28.85
2019-04-21T17:31:32.284Z,28.88
2019-04-21T17:34:11.898Z,28.95
2019-04-21T17:36:34.912Z,28.82
2019-04-21T17:39:06.894Z,28.79
2019-04-21T17:41:43.437Z,28.52
2019-04-21T17:44:08.790Z,28.77
2019-04-21T17:46:46.566Z,28.88
2019-04-21T17:49:10.830Z,28.88
2019-04-21T17:51:55.687Z,29.06
2019-04-21T17:54:37.633Z,29.35
2019-04-21T17:57:26.679Z,29.65
2019-04-21T18:00:04.051Z,30.02
2019-04-21T18:02:34.030Z,30.39
2019-04-21T18:05:08.559Z,30.81
2019-04-21T18:07:35.112Z,31.06
2019-04-21T18:10:17.477Z,31.55
2019-04-21T18:12:38.812Z,32.10
2019-04-21T18:15:13.565Z,32.43
2019-04-21T18:17:24.601Z,33.01
2019-04-21T18:19:57.346Z,33.53
2019-04-21T18:22:54.704Z,34.03
2019-04-21T18:25:37.636Z,34.52
2019-04-21T18:27:56.637Z,35.15
2019-04-21T18:30:46.817Z,35.31
2019-04-21T18:33:22.276Z,35.85
2019-04-21T18:36:07.088Z,36.44
2019-04-21T18:39:01.222Z,36.94
2019-04-21T18:41:13.344Z,37.14
2019-04-21T18:44:13.340Z,37.64
2019-04-21T18:46:46.178Z,38.05
2019-04-21T18:49:11.369Z,38.40
2019-04-21T18:52:17.166Z,38.80
2019-04-21T18:54:54.742Z,39.09
2019-04-21T18:57:21.905Z,39.37
2019-04-21T18:59:44.015Z,39.64
2019-04-21T19:02:17.464Z,39.62
2019-04-21T19:04:46.477Z,40.03
2019-04-21T19:07:26.557Z,40.10
2019-04-21T19:12:50.653Z,40.22
2019-04-21T19:15:13.666Z,40.79
2019-04-21T19:18:24.853Z,40.93
2019-04-21T19:20:24.185Z,41.07
2019-04-21T19:22:42.716Z,41.07
2019-04-21T19:25:16.707Z,41.34
2019-04-21T19:27:49.134Z,41.32
2019-04-21T19:30:30.189Z,41.40
2019-04-21T19:32:51.484Z,41.60
2019-04-21T19:35:07.858Z,41.37
2019-04-21T19:37:45.218Z,41.80
2019-04-21T19:40:27.618Z,41.62
2019-04-21T19:42:50.922Z,41.67
2019-04-21T19:45:29.728Z,41.68
2019-04-21T19:48:01.009Z,41.39
2019-04-21T19:50:35.033Z,41.36
2019-04-21T19:52:55.345Z,41.37
2019-04-21T19:55:18.218Z,41.40
2019-04-21T19:57:49.177Z,41.75
2019-04-21T20:00:19.310Z,41.91
2019-04-21T20:02:50.452Z,42.10
2019-04-21T20:05:32.725Z,42.26
2019-04-21T20:08:08.323Z,42.63
2019-04-21T20:10:44.435Z,42.57
2019-04-21T20:13:18.074Z,42.74
2019-04-21T20:15:47.300Z,43.01
2019-04-21T20:18:07.069Z,43.03
2019-04-21T20:20:28.986Z,43.58
2019-04-21T20:22:59.354Z,43.75
2019-04-21T20:25:29.531Z,44.24
2019-04-21T20:28:09.080Z,44.22
2019-04-21T20:30:49.034Z,44.36
2019-04-21T20:33:41.671Z,44.61
2019-04-21T20:35:57.071Z,44.85
2019-04-21T20:38:16.088Z,44.94
2019-04-21T20:40:48.942Z,44.77
2019-04-21T20:43:31.071Z,45.02
2019-04-21T20:46:03.553Z,45.47
2019-04-21T20:48:26.596Z,45.70
2019-04-21T20:51:09.227Z,46.11
2019-04-21T20:53:30.296Z,46.06
2019-04-21T20:56:01.169Z,46.70
2019-04-21T20:58:34.269Z,46.80
2019-04-21T21:03:46.453Z,47.28
2019-04-21T21:06:08.206Z,47.76
2019-04-21T21:08:40.199Z,47.63
2019-04-21T21:11:09.559Z,48.29
2019-04-21T21:13:47.876Z,48.57
2019-04-21T21:16:20.190Z,48.70
2019-04-21T21:19:08.587Z,48.91
2019-04-21T21:21:15.193Z,49.46
2019-04-21T21:23:51.252Z,49.61
2019-04-21T21:26:25.638Z,49.88
2019-04-21T21:28:46.063Z,50.42
2019-04-21T21:31:25.293Z,51.09
2019-04-21T21:36:33.894Z,51.83
2019-04-21T21:39:01.251Z,52.30
2019-04-21T21:41:22.157Z,52.64
2019-04-21T21:43:59.933Z,52.88
2019-04-21T21:46:40.319Z,53.25
2019-04-21T21:49:03.824Z,53.67
2019-04-21T21:51:41.149Z,53.79
2019-04-21T21:53:57.067Z,53.95
2019-04-21T21:56:26.855Z,53.75
2019-04-21T21:58:57.116Z,54.57
2019-04-21T22:01:31.905Z,54.26
2019-04-21T22:04:08.449Z,54.66
2019-04-21T22:06:38.685Z,54.78
2019-04-21T22:09:04.064Z,55.05
2019-04-21T22:11:33.905Z,55.52
2019-04-21T22:14:08.129Z,55.96
2019-04-21T22:16:45.489Z,56.23
2019-04-21T22:19:21.869Z,56.62
2019-04-21T22:22:02.470Z,56.72
2019-04-21T22:24:27.898Z,56.71
2019-04-21T22:26:45.238Z,56.67
2019-04-21T22:29:15.972Z,57.11
2019-04-21T22:31:46.886Z,57.34
2019-04-21T22:34:21.860Z,57.13
2019-04-21T22:36:58.983Z,57.53
2019-04-21T22:39:36.119Z,57.41
2019-04-21T22:42:01.816Z,57.77
2019-04-21T22:44:22.705Z,57.60
2019-04-21T22:47:02.185Z,57.77
2019-04-21T22:49:23.885Z,57.88
2019-04-21T22:51:54.305Z,57.80
2019-04-21T22:54:31.451Z,57.91
2019-04-21T22:57:02.568Z,57.89
2019-04-21T22:59:28.598Z,58.05
2019-04-21T23:01:59.427Z,58.19
2019-04-21T23:04:36.885Z,58.33
2019-04-21T23:07:07.400Z,58.22
2019-04-21T23:09:32.928Z,58.13
2019-04-21T23:12:03.330Z,58.47
2019-04-21T23:14:46.841Z,58.70
2019-04-21T23:17:29.877Z,58.80
2019-04-21T23:19:53.717Z,58.99
2019-04-21T23:22:31.353Z,59.12
2019-04-21T23:25:03.384Z,59.14
2019-04-21T23:27:23.978Z,58.98
2019-04-21T23:30:11.669Z,59.12
2019-04-21T23:32:27.827Z,59.34
2019-04-21T23:34:47.688Z,59.29
2019-04-21T23:37:21.732Z,59.64
2019-04-21T23:39:52.167Z,59.68
2019-04-21T23:42:30.538Z,60.03
2019-04-21T23:44:58.093Z,59.91
2019-04-21T23:47:36.323Z,60.13
2019-04-21T23:50:02.769Z,60.38
2019-04-21T23:52:27.872Z,60.15
2019-04-21T23:55:01.054Z,60.37
2019-04-21T23:57:38.011Z,60.56
